createdAt,value
2022-08-25T00:03:20.428Z,23.29
2022-08-25T00:13:25.127Z,23.14
2022-08-25T00:23:30.222Z,22.98
2022-08-25T00:33:33.506Z,22.90
2022-08-25T00:43:46.776Z,22.72
2022-08-25T00:53:49.936Z,22.57
2022-08-25T01:03:54.240Z,22.52
2022-08-25T01:13:58.427Z,22.37
2022-08-25T01:24:02.759Z,22.27
2022-08-25T01:34:06.615Z,22.19
2022-08-25T01:44:36.333Z,22.14
2022-08-25T01:54:39.259Z,22.14
2022-08-25T02:04:44.535Z,22.02
2022-08-25T02:15:43.137Z,21.89
2022-08-25T02:25:47.373Z,21.82
2022-08-25T02:35:50.019Z,21.74
2022-08-25T02:45:55.497Z,21.62
2022-08-25T02:55:58.283Z,21.49
2022-08-25T03:06:02.389Z,21.39
2022-08-25T03:16:11.096Z,21.30
2022-08-25T03:26:33.183Z,21.35
2022-08-25T03:36:36.092Z,21.33
2022-08-25T03:46:42.516Z,21.24
2022-08-25T03:56:45.825Z,21.16
2022-08-25T04:06:49.927Z,21.01
2022-08-25T04:16:53.775Z,20.80
2022-08-25T04:26:57.982Z,20.62
2022-08-25T04:37:03.029Z,20.57
2022-08-25T04:47:07.420Z,20.51
2022-08-25T04:57:10.191Z,20.40
2022-08-25T05:07:14.235Z,20.42
2022-08-25T05:17:16.976Z,20.43
2022-08-25T05:27:21.003Z,20.53
2022-08-25T05:37:23.678Z,20.64
2022-08-25T05:47:28.154Z,20.83
2022-08-25T05:57:30.891Z,21.05
2022-08-25T06:07:36.106Z,21.32
2022-08-25T06:17:40.883Z,21.42
2022-08-25T06:27:45.436Z,21.59
2022-08-25T06:37:48.278Z,21.85
2022-08-25T06:47:52.846Z,22.07
2022-08-25T06:57:55.615Z,22.40
2022-08-25T07:08:01.573Z,22.73
2022-08-25T07:18:04.462Z,23.08
2022-08-25T07:28:10.023Z,23.39
2022-08-25T07:38:16.672Z,23.75
2022-08-25T07:48:24.851Z,24.15
2022-08-25T07:58:27.556Z,24.45
2022-08-25T08:08:31.582Z,24.77
2022-08-25T08:18:35.369Z,25.20
2022-08-25T08:28:39.491Z,25.63
2022-08-25T08:38:43.570Z,25.96
2022-08-25T08:48:59.666Z,26.18
2022-08-25T08:59:06.659Z,26.69
2022-08-25T09:09:13.688Z,27.00
2022-08-25T09:19:32.113Z,27.44
2022-08-25T09:29:49.186Z,27.72
2022-08-25T09:39:51.971Z,28.32
2022-08-25T09:50:01.521Z,28.48
2022-08-25T10:00:19.931Z,28.71
2022-08-25T10:10:32.328Z,28.92
2022-08-25T10:20:35.632Z,29.13
2022-08-25T10:30:56.016Z,29.32
2022-08-25T10:41:10.153Z,29.42
2022-08-25T10:51:32.731Z,29.52
2022-08-25T11:01:53.983Z,29.76
2022-08-25T11:12:01.723Z,30.30
2022-08-25T11:22:13.205Z,30.80
2022-08-25T11:32:22.823Z,36.19
2022-08-25T11:42:37.487Z,42.54
2022-08-25T11:52:49.226Z,45.48
2022-08-25T12:02:54.519Z,45.57
2022-08-25T12:13:04.783Z,45.53
2022-08-25T12:23:10.886Z,46.01
2022-08-25T12:33:24.944Z,45.33
2022-08-25T12:43:33.339Z,46.79
2022-08-25T12:53:44.046Z,42.29
2022-08-25T13:04:11.853Z,37.17
2022-08-25T13:14:20.793Z,34.91
2022-08-25T13:24:27.864Z,34.09
2022-08-25T13:34:34.729Z,33.94
2022-08-25T13:44:39.716Z,33.50
2022-08-25T13:54:59.840Z,33.46
2022-08-25T14:05:02.690Z,33.21
2022-08-25T14:15:13.639Z,33.12
2022-08-25T14:25:17.160Z,33.41
2022-08-25T14:35:21.230Z,32.82
2022-08-25T14:45:25.209Z,33.04
2022-08-25T14:55:31.504Z,33.02
2022-08-25T15:05:35.084Z,32.72
2022-08-25T15:15:52.564Z,32.73
2022-08-25T15:26:01.451Z,32.20
2022-08-25T15:36:06.568Z,31.94
2022-08-25T15:46:14.052Z,31.74
2022-08-25T15:56:26.886Z,31.64
2022-08-25T16:06:29.885Z,31.53
2022-08-25T16:16:34.664Z,31.49
2022-08-25T16:26:47.986Z,31.29
2022-08-25T16:36:52.575Z,31.02
2022-08-25T16:46:56.472Z,30.64
2022-08-25T16:57:00.645Z,30.45
2022-08-25T17:07:03.375Z,30.30
2022-08-25T17:17:09.681Z,30.11
2022-08-25T17:27:13.597Z,29.91
2022-08-25T17:37:17.623Z,29.79
2022-08-25T17:47:20.711Z,29.67
2022-08-25T17:57:24.787Z,29.46
2022-08-25T18:07:27.460Z,29.00
2022-08-25T18:17:31.745Z,28.69
2022-08-25T18:27:35.896Z,28.40
2022-08-25T18:37:57.647Z,28.09
2022-08-25T18:48:00.786Z,27.78
2022-08-25T18:58:07.561Z,27.51
2022-08-25T19:08:12.046Z,27.25
2022-08-25T19:18:17.321Z,26.96
2022-08-25T19:28:20.180Z,26.78
2022-08-25T19:38:33.863Z,26.56
2022-08-25T19:48:37.974Z,26.37
2022-08-25T19:58:42.031Z,26.27
2022-08-25T20:08:46.303Z,26.13
2022-08-25T20:18:50.658Z,25.95
2022-08-25T20:28:53.457Z,25.75
2022-08-25T20:38:59.050Z,25.64
2022-08-25T20:49:03.614Z,25.50
2022-08-25T20:59:10.404Z,25.33
2022-08-25T21:09:18.003Z,25.09
2022-08-25T21:19:26.354Z,24.95
2022-08-25T21:29:32.522Z,24.77
2022-08-25T21:39:36.631Z,24.76
2022-08-25T21:49:39.580Z,24.64
2022-08-25T21:59:43.699Z,24.45
2022-08-25T22:09:46.441Z,24.39
2022-08-25T22:19:53.867Z,24.30
2022-08-25T22:29:56.778Z,24.29
2022-08-25T22:40:00.834Z,24.16
2022-08-25T22:50:04.960Z,24.02
2022-08-25T23:00:13.066Z,23.84
2022-08-25T23:10:15.991Z,23.71
2022-08-25T23:20:38.071Z,23.41
2022-08-25T23:30:56.982Z,23.24
2022-08-25T23:41:06.875Z,22.95
2022-08-25T23:51:10.018Z,23.08
